Weather at Southeast Health Center of Stoddard County Heliport

Public forecast

Using degrees Fahrenheit for public forecast. Weather courtesy of forecast.io.

Closest aviation weather report (METAR) to Southeast Health Center of Stoddard County Heliport

Closest report is Poplar Bluff Municipal Airport, 17.3 nm (32.1 km) W. Retrieved 2021/12/01 10:53 UTC (38 minutes ago):

KPOF 011053Z AUTO 16003KT CLR 07/04 A2999 RMK AO2 SLP159 T00670039

Closest aviation forecast (TAF) to Southeast Health Center of Stoddard County Heliport

Closest forecast is Cape Girardeau Regional Airport, 31.5 nm (58.3 km) NE. Retrieved 2021/12/01 06:12 UTC (5 hours ago):

TAF KCGI 010609Z 0106/0206 VRB02KT P6SM BKN150 FM011500 22005KT P6SM BKN120 FM012000 22003KT P6SM FEW200